createdAt,value
2022-08-10T00:01:52.796Z,99.90
2022-08-10T00:04:22.669Z,99.90
2022-08-10T00:06:53.147Z,99.90
2022-08-10T00:09:22.468Z,99.90
2022-08-10T00:11:49.954Z,99.90
2022-08-10T00:14:17.522Z,99.90
2022-08-10T00:16:45.553Z,99.90
2022-08-10T00:19:12.999Z,99.90
2022-08-10T00:21:44.404Z,99.90
2022-08-10T00:24:11.765Z,99.90
2022-08-10T00:27:58.863Z,99.90
2022-08-10T00:29:26.811Z,99.90
2022-08-10T00:31:58.016Z,99.90
2022-08-10T00:34:27.672Z,99.90
2022-08-10T00:36:55.418Z,99.90
2022-08-10T00:39:23.008Z,99.90
2022-08-10T00:42:06.880Z,99.90
2022-08-10T00:44:39.948Z,99.90
2022-08-10T00:47:15.394Z,99.90
2022-08-10T00:49:57.591Z,99.90
2022-08-10T00:52:27.498Z,99.90
2022-08-10T00:54:55.587Z,99.90
2022-08-10T00:57:23.014Z,99.90
2022-08-10T00:59:57.650Z,99.90
2022-08-10T01:02:29.458Z,99.90
2022-08-10T01:05:01.570Z,99.90
2022-08-10T01:07:56.970Z,99.90
2022-08-10T01:10:32.558Z,99.90
2022-08-10T01:13:15.370Z,99.90
2022-08-10T01:15:55.025Z,99.90
2022-08-10T01:18:39.829Z,99.90
2022-08-10T01:21:53.198Z,99.90
2022-08-10T01:24:42.627Z,99.90
2022-08-10T01:27:27.172Z,99.90
2022-08-10T01:30:04.662Z,99.90
2022-08-10T01:32:53.948Z,99.90
2022-08-10T01:35:53.027Z,99.90
2022-08-10T01:38:41.347Z,99.90
2022-08-10T01:41:27.775Z,99.90
2022-08-10T01:44:16.267Z,99.90
2022-08-10T01:46:51.350Z,99.90
2022-08-10T01:49:25.701Z,99.90
2022-08-10T01:51:56.397Z,99.90
2022-08-10T01:54:29.894Z,99.90
2022-08-10T01:56:59.627Z,99.90
2022-08-10T01:59:33.920Z,99.90
2022-08-10T02:02:08.010Z,99.90
2022-08-10T02:04:39.810Z,99.90
2022-08-10T02:07:11.921Z,99.90
2022-08-10T02:09:45.289Z,99.90
2022-08-10T02:12:19.562Z,99.90
2022-08-10T02:15:01.041Z,99.90
2022-08-10T02:17:58.126Z,99.90
2022-08-10T02:20:36.631Z,99.90
2022-08-10T02:23:11.525Z,99.90
2022-08-10T02:25:43.663Z,99.90
2022-08-10T02:28:27.264Z,99.90
2022-08-10T02:31:11.946Z,99.90
2022-08-10T02:33:57.376Z,99.90
2022-08-10T02:36:29.808Z,99.90
2022-08-10T02:39:01.411Z,99.90
2022-08-10T02:45:00.912Z,99.90
2022-08-10T02:45:20.366Z,99.90
2022-08-10T02:47:51.323Z,99.90
2022-08-10T02:50:27.774Z,99.90
2022-08-10T02:53:09.282Z,99.90
2022-08-10T02:56:02.545Z,99.90
2022-08-10T02:58:39.535Z,99.90
2022-08-10T03:01:14.328Z,99.90
2022-08-10T03:03:53.307Z,99.90
2022-08-10T03:06:24.938Z,99.90
2022-08-10T03:08:54.074Z,99.90
2022-08-10T03:12:36.177Z,99.90
2022-08-10T03:14:18.494Z,99.90
2022-08-10T03:16:47.592Z,99.90
2022-08-10T03:20:33.367Z,99.90
2022-08-10T03:22:05.955Z,99.90
2022-08-10T03:24:34.989Z,99.90
2022-08-10T03:27:04.985Z,99.90
2022-08-10T03:30:23.247Z,99.90
2022-08-10T03:32:23.155Z,99.90
2022-08-10T03:34:51.555Z,99.90
2022-08-10T03:37:19.644Z,99.90
2022-08-10T03:39:47.462Z,99.90
2022-08-10T03:42:16.210Z,99.90
2022-08-10T03:44:49.878Z,99.90
2022-08-10T03:47:21.109Z,99.90
2022-08-10T03:49:50.979Z,99.90
2022-08-10T03:52:19.756Z,99.90
2022-08-10T03:54:47.782Z,99.90
2022-08-10T03:57:15.306Z,99.90
2022-08-10T03:59:42.894Z,99.90
2022-08-10T04:02:44.858Z,99.90
2022-08-10T04:04:58.892Z,99.90
2022-08-10T04:07:26.881Z,99.90
2022-08-10T04:09:56.450Z,99.90
2022-08-10T04:12:26.295Z,99.90
2022-08-10T04:14:54.028Z,99.90
2022-08-10T04:18:04.946Z,99.90
2022-08-10T04:20:19.905Z,99.90
2022-08-10T04:22:50.654Z,99.90
2022-08-10T04:25:18.487Z,99.90
2022-08-10T04:27:46.735Z,99.90
2022-08-10T04:30:14.740Z,99.90
2022-08-10T04:32:44.983Z,99.90
2022-08-10T04:35:17.031Z,99.90
2022-08-10T04:37:47.160Z,99.90
2022-08-10T04:40:28.799Z,99.90
2022-08-10T04:43:07.345Z,99.90
2022-08-10T04:45:50.370Z,99.90
2022-08-10T04:48:40.465Z,99.90
2022-08-10T04:51:19.153Z,99.90
2022-08-10T04:54:03.888Z,99.90
2022-08-10T04:56:37.870Z,99.90
2022-08-10T04:59:10.796Z,99.90
2022-08-10T05:02:30.754Z,99.90
2022-08-10T05:04:34.517Z,99.90
2022-08-10T05:07:16.344Z,99.90
2022-08-10T05:10:01.082Z,99.90
2022-08-10T05:12:38.808Z,99.90
2022-08-10T05:15:12.294Z,99.90
2022-08-10T05:17:41.514Z,99.90
2022-08-10T05:20:29.127Z,99.90
2022-08-10T05:22:57.328Z,99.90
2022-08-10T05:25:25.140Z,99.90
2022-08-10T05:27:54.719Z,99.90
2022-08-10T05:30:23.969Z,99.90
2022-08-10T05:32:57.194Z,99.90
2022-08-10T05:35:55.372Z,99.90
2022-08-10T05:38:17.752Z,99.90
2022-08-10T05:40:47.838Z,99.90
2022-08-10T05:43:18.126Z,99.90
2022-08-10T05:46:18.958Z,99.90
2022-08-10T05:48:54.047Z,99.90
2022-08-10T05:51:23.098Z,99.90
2022-08-10T05:54:03.163Z,99.90
2022-08-10T05:56:55.715Z,99.90
2022-08-10T06:00:32.441Z,99.90
2022-08-10T06:02:31.851Z,99.90
2022-08-10T06:05:10.681Z,99.90
2022-08-10T06:07:41.415Z,99.90
2022-08-10T06:10:12.798Z,99.90
2022-08-10T06:12:54.895Z,99.90
2022-08-10T06:15:51.440Z,99.90
2022-08-10T06:18:15.316Z,99.90
2022-08-10T06:20:43.624Z,99.90
2022-08-10T06:23:12.061Z,99.90
2022-08-10T06:26:11.253Z,99.90
2022-08-10T06:28:31.074Z,99.90
2022-08-10T06:31:00.353Z,99.90
2022-08-10T06:33:31.662Z,99.90
2022-08-10T06:36:00.414Z,99.90
2022-08-10T06:38:31.877Z,99.90
2022-08-10T06:41:04.609Z,99.90
2022-08-10T06:43:33.845Z,99.90
2022-08-10T06:46:06.774Z,99.90
2022-08-10T06:48:40.635Z,99.90
2022-08-10T06:51:15.439Z,99.90
2022-08-10T06:53:54.302Z,99.90
2022-08-10T06:56:37.889Z,99.90
2022-08-10T06:59:33.543Z,99.90
2022-08-10T07:02:07.901Z,99.90
2022-08-10T07:05:02.953Z,99.90
2022-08-10T07:07:34.688Z,99.90
2022-08-10T07:10:02.288Z,99.90
2022-08-10T07:12:31.725Z,99.90
2022-08-10T07:15:00.459Z,99.90
2022-08-10T07:17:30.732Z,99.90
2022-08-10T07:20:00.663Z,99.80
2022-08-10T07:23:08.333Z,99.50
2022-08-10T07:25:24.586Z,97.80
2022-08-10T07:28:00.441Z,95.10
2022-08-10T07:30:41.260Z,94.30
2022-08-10T07:33:10.130Z,94.20
2022-08-10T07:35:42.270Z,91.80
2022-08-10T07:38:18.033Z,89.70
2022-08-10T07:40:48.539Z,85.70
2022-08-10T07:43:18.786Z,82.90
2022-08-10T07:45:49.193Z,76.00
2022-08-10T07:48:27.016Z,76.10
2022-08-10T07:50:59.419Z,72.70
2022-08-10T07:53:40.222Z,72.40
2022-08-10T07:56:25.960Z,69.90
2022-08-10T07:59:06.074Z,65.00
2022-08-10T08:01:40.161Z,62.80
2022-08-10T08:04:11.778Z,61.90
2022-08-10T08:06:42.480Z,63.60
2022-08-10T08:09:11.722Z,61.50
2022-08-10T08:11:46.120Z,59.70
2022-08-10T08:14:15.727Z,59.00
2022-08-10T08:16:47.345Z,57.30
2022-08-10T08:19:26.709Z,55.70
2022-08-10T08:24:05.690Z,55.80
2022-08-10T08:24:44.457Z,54.10
2022-08-10T08:27:16.133Z,52.40
2022-08-10T08:29:46.939Z,50.60
2022-08-10T08:32:24.230Z,50.10
2022-08-10T08:34:58.582Z,49.10
2022-08-10T08:38:31.709Z,48.40
2022-08-10T08:40:27.824Z,47.50
2022-08-10T08:43:18.031Z,46.50
2022-08-10T08:46:28.752Z,45.30
2022-08-10T08:49:41.415Z,43.70
2022-08-10T08:52:38.784Z,42.10
2022-08-10T08:55:52.359Z,41.30
2022-08-10T08:58:33.293Z,38.80
2022-08-10T09:01:23.421Z,37.90
2022-08-10T09:04:19.797Z,37.70
2022-08-10T09:07:39.286Z,38.20
2022-08-10T09:10:26.698Z,37.30
2022-08-10T09:13:04.797Z,35.50
2022-08-10T09:16:00.013Z,37.10
2022-08-10T09:19:03.598Z,36.10
2022-08-10T09:21:59.044Z,35.50
2022-08-10T09:24:41.677Z,36.50
2022-08-10T09:27:24.906Z,34.50
2022-08-10T09:29:57.933Z,33.30
2022-08-10T09:36:15.193Z,34.40
2022-08-10T09:36:19.531Z,33.00
2022-08-10T09:38:47.443Z,32.00
2022-08-10T09:41:27.523Z,31.50
2022-08-10T09:44:10.198Z,30.10
2022-08-10T09:46:57.404Z,30.80
2022-08-10T09:50:04.651Z,31.70
2022-08-10T09:52:39.246Z,31.10
2022-08-10T09:56:17.409Z,32.70
2022-08-10T09:58:34.615Z,31.40
2022-08-10T10:02:02.522Z,30.90
2022-08-10T10:04:56.223Z,29.90
2022-08-10T10:07:27.667Z,29.00
2022-08-10T10:10:33.069Z,28.50
2022-08-10T10:13:11.158Z,29.30
2022-08-10T10:15:57.367Z,30.00
2022-08-10T10:18:47.093Z,28.60
2022-08-10T10:21:59.534Z,28.70
2022-08-10T10:24:47.783Z,28.40
2022-08-10T10:27:26.766Z,28.30
2022-08-10T10:30:12.714Z,28.70
2022-08-10T10:33:08.285Z,28.20
2022-08-10T10:35:54.871Z,27.40
2022-08-10T10:38:26.988Z,27.20
2022-08-10T10:41:26.803Z,27.30
2022-08-10T10:44:38.966Z,26.70
2022-08-10T10:47:18.145Z,27.10
2022-08-10T10:50:13.022Z,26.70
2022-08-10T10:53:02.302Z,26.60
2022-08-10T10:56:14.670Z,27.40
2022-08-10T10:59:15.424Z,26.70
2022-08-10T11:02:29.339Z,25.60
2022-08-10T11:05:13.793Z,24.80
2022-08-10T11:08:07.670Z,25.10
2022-08-10T11:10:52.702Z,25.50
2022-08-10T11:14:24.500Z,25.10
2022-08-10T11:16:38.643Z,24.60
2022-08-10T11:19:26.743Z,24.50
2022-08-10T11:22:30.090Z,24.20
2022-08-10T11:25:29.781Z,24.00
2022-08-10T11:28:21.058Z,23.70
2022-08-10T11:30:58.835Z,24.20
2022-08-10T11:34:36.081Z,24.60
2022-08-10T11:37:05.168Z,24.70
2022-08-10T11:39:51.313Z,24.80
2022-08-10T11:42:35.905Z,23.80
2022-08-10T11:45:08.202Z,23.90
2022-08-10T11:47:50.548Z,24.50
2022-08-10T11:50:28.325Z,23.70
2022-08-10T11:53:14.682Z,23.80
2022-08-10T11:55:49.231Z,23.00
2022-08-10T11:58:39.399Z,24.50
2022-08-10T12:01:10.804Z,24.50
2022-08-10T12:03:41.504Z,23.30
2022-08-10T12:06:13.694Z,23.70
2022-08-10T12:10:02.574Z,23.40
2022-08-10T12:11:31.265Z,23.60
2022-08-10T12:14:23.377Z,23.80
2022-08-10T12:17:23.938Z,23.10
2022-08-10T12:20:04.899Z,23.90
2022-08-10T12:22:56.683Z,23.00
2022-08-10T12:25:56.553Z,23.50
2022-08-10T12:28:49.852Z,22.60
2022-08-10T12:31:35.755Z,22.50
2022-08-10T12:34:16.214Z,22.50
2022-08-10T12:36:51.878Z,22.20
2022-08-10T12:39:25.369Z,22.20
2022-08-10T12:42:37.065Z,22.00
2022-08-10T12:45:15.949Z,22.40
2022-08-10T12:47:58.293Z,22.70
2022-08-10T12:50:43.737Z,22.00
2022-08-10T12:53:26.213Z,22.10
2022-08-10T12:55:54.751Z,21.90
2022-08-10T12:58:58.211Z,22.30
2022-08-10T13:01:16.458Z,21.90
2022-08-10T13:04:21.150Z,22.80
2022-08-10T13:06:46.337Z,22.20
2022-08-10T13:09:14.607Z,22.00
2022-08-10T13:12:36.062Z,22.30
2022-08-10T13:15:03.737Z,22.40
2022-08-10T13:17:54.038Z,22.50
2022-08-10T13:20:28.211Z,22.70
2022-08-10T13:23:01.412Z,22.60
2022-08-10T13:25:41.978Z,23.00
2022-08-10T13:28:37.235Z,22.70
2022-08-10T13:31:05.226Z,23.30
2022-08-10T13:34:39.192Z,22.80
2022-08-10T13:36:28.586Z,22.70
2022-08-10T13:38:57.595Z,23.00
2022-08-10T13:41:35.049Z,22.50
2022-08-10T13:44:02.450Z,22.70
2022-08-10T13:46:31.503Z,22.50
2022-08-10T13:49:00.494Z,22.20
2022-08-10T13:51:54.049Z,23.00
2022-08-10T13:54:22.049Z,22.80
2022-08-10T13:56:52.200Z,23.30
2022-08-10T13:59:21.503Z,23.30
2022-08-10T14:01:51.307Z,23.70
2022-08-10T14:04:20.158Z,23.90
2022-08-10T14:06:56.575Z,23.70
2022-08-10T14:09:29.799Z,24.90
2022-08-10T14:11:58.940Z,24.80
2022-08-10T14:14:29.371Z,24.50
2022-08-10T14:16:58.500Z,24.80
2022-08-10T14:19:31.641Z,24.10
2022-08-10T14:22:00.517Z,24.00
2022-08-10T14:24:30.489Z,25.20
2022-08-10T14:27:12.479Z,24.90
2022-08-10T14:29:43.584Z,25.20
2022-08-10T14:32:14.285Z,25.80
2022-08-10T14:36:14.992Z,26.00
2022-08-10T14:37:38.777Z,26.30
2022-08-10T14:40:15.688Z,26.00
2022-08-10T14:42:52.562Z,26.20
2022-08-10T14:45:24.022Z,26.00
2022-08-10T14:47:59.649Z,26.00
2022-08-10T14:50:32.770Z,27.20
2022-08-10T14:53:15.269Z,27.70
2022-08-10T14:55:58.911Z,27.10
2022-08-10T14:58:33.028Z,27.80
2022-08-10T15:01:02.605Z,28.80
2022-08-10T15:03:58.323Z,28.80
2022-08-10T15:06:30.585Z,28.50
2022-08-10T15:09:18.791Z,28.60
2022-08-10T15:12:14.224Z,29.30
2022-08-10T15:14:42.564Z,29.40
2022-08-10T15:17:13.635Z,28.60
2022-08-10T15:20:03.815Z,29.20
2022-08-10T15:22:38.382Z,27.80
2022-08-10T15:25:19.122Z,29.00
2022-08-10T15:28:06.367Z,28.70
2022-08-10T15:30:42.845Z,29.20
2022-08-10T15:34:00.276Z,29.90
2022-08-10T15:36:58.784Z,29.60
2022-08-10T15:40:24.333Z,29.60
2022-08-10T15:42:27.202Z,29.30
2022-08-10T15:44:55.054Z,30.50
2022-08-10T15:47:49.356Z,30.90
2022-08-10T15:50:24.605Z,29.60
2022-08-10T15:53:07.054Z,31.20
2022-08-10T15:55:54.715Z,33.00
2022-08-10T15:58:40.085Z,33.20
2022-08-10T16:02:12.741Z,32.60
2022-08-10T16:04:07.990Z,32.10
2022-08-10T16:06:44.156Z,31.90
2022-08-10T16:10:22.306Z,32.60
2022-08-10T16:12:13.575Z,32.30
2022-08-10T16:14:47.278Z,32.10
2022-08-10T16:17:16.843Z,31.50
2022-08-10T16:19:53.376Z,33.40
2022-08-10T16:22:36.084Z,33.60
2022-08-10T16:25:16.581Z,33.60
2022-08-10T16:27:45.275Z,33.60
2022-08-10T16:30:14.196Z,33.30
2022-08-10T16:32:42.653Z,32.70
2022-08-10T16:35:17.513Z,33.50
2022-08-10T16:37:57.155Z,34.50
2022-08-10T16:40:28.963Z,34.60
2022-08-10T16:42:59.901Z,35.10
2022-08-10T16:45:54.899Z,34.40
2022-08-10T16:48:49.589Z,34.60
2022-08-10T16:51:17.551Z,34.60
2022-08-10T16:53:47.549Z,35.20
2022-08-10T16:56:16.339Z,36.40
2022-08-10T16:58:46.809Z,36.30
2022-08-10T17:01:22.932Z,36.00
2022-08-10T17:04:06.658Z,36.50
2022-08-10T17:06:58.638Z,36.50
2022-08-10T17:09:32.079Z,35.70
2022-08-10T17:12:05.846Z,36.50
2022-08-10T17:14:33.310Z,36.10
2022-08-10T17:17:05.595Z,36.70
2022-08-10T17:19:40.702Z,37.70
2022-08-10T17:22:17.319Z,37.90
2022-08-10T17:25:08.134Z,38.10
2022-08-10T17:28:05.491Z,38.30
2022-08-10T17:30:34.071Z,40.30
2022-08-10T17:33:09.241Z,40.10
2022-08-10T17:35:39.566Z,38.50
2022-08-10T17:38:13.717Z,40.00
2022-08-10T17:40:50.990Z,41.00
2022-08-10T17:44:00.731Z,41.30
2022-08-10T17:46:13.119Z,41.00
2022-08-10T17:48:43.194Z,41.90
2022-08-10T17:51:15.879Z,42.60
2022-08-10T17:53:47.648Z,43.00
2022-08-10T17:56:17.021Z,43.80
2022-08-10T17:58:55.853Z,44.30
2022-08-10T18:01:40.586Z,44.50
2022-08-10T18:04:17.921Z,45.40
2022-08-10T18:06:51.932Z,45.40
2022-08-10T18:09:38.913Z,46.20
2022-08-10T18:12:19.106Z,46.90
2022-08-10T18:14:53.017Z,47.80
2022-08-10T18:17:24.732Z,48.50
2022-08-10T18:19:56.320Z,49.50
2022-08-10T18:22:24.840Z,50.00
2022-08-10T18:24:54.026Z,50.00
2022-08-10T18:27:22.434Z,50.10
2022-08-10T18:30:10.815Z,50.60
2022-08-10T18:32:41.094Z,51.00
2022-08-10T18:35:09.434Z,51.60
2022-08-10T18:37:38.627Z,52.30
2022-08-10T18:40:07.649Z,52.40
2022-08-10T18:42:44.420Z,53.30
2022-08-10T18:45:15.521Z,54.70
2022-08-10T18:48:01.650Z,55.30
2022-08-10T18:50:32.956Z,55.30
2022-08-10T18:53:04.481Z,56.40
2022-08-10T18:55:39.710Z,57.10
2022-08-10T18:58:40.516Z,59.70
2022-08-10T19:01:35.296Z,60.50
2022-08-10T19:04:15.913Z,61.70
2022-08-10T19:07:24.544Z,62.80
2022-08-10T19:10:21.416Z,64.40
2022-08-10T19:12:59.144Z,64.90
2022-08-10T19:15:57.615Z,65.30
2022-08-10T19:19:00.133Z,65.00
2022-08-10T19:21:32.915Z,67.00
2022-08-10T19:24:02.984Z,67.80
2022-08-10T19:27:01.066Z,69.30
2022-08-10T19:30:09.036Z,69.30
2022-08-10T19:32:45.300Z,69.40
2022-08-10T19:35:28.281Z,70.60
2022-08-10T19:38:16.667Z,71.30
2022-08-10T19:40:54.804Z,71.00
2022-08-10T19:44:01.187Z,71.80
2022-08-10T19:46:37.358Z,72.70
2022-08-10T19:49:43.522Z,74.80
2022-08-10T19:52:37.947Z,77.20
2022-08-10T19:55:28.086Z,77.70
2022-08-10T19:58:16.883Z,77.60
2022-08-10T20:00:58.136Z,77.90
2022-08-10T20:03:49.238Z,77.60
2022-08-10T20:06:22.707Z,77.70
2022-08-10T20:09:00.500Z,77.90
2022-08-10T20:12:04.344Z,78.20
2022-08-10T20:15:09.098Z,78.60
2022-08-10T20:18:00.685Z,78.90
2022-08-10T20:20:37.217Z,79.20
2022-08-10T20:23:18.682Z,80.10
2022-08-10T20:26:08.022Z,80.80
2022-08-10T20:28:43.581Z,82.20
2022-08-10T20:31:17.355Z,84.50
2022-08-10T20:34:09.647Z,85.00
2022-08-10T20:36:48.250Z,85.90
2022-08-10T20:39:40.486Z,88.00
2022-08-10T20:42:22.117Z,89.10
2022-08-10T20:45:05.837Z,90.50
2022-08-10T20:48:02.947Z,91.90
2022-08-10T20:50:48.227Z,93.00
2022-08-10T20:53:25.023Z,94.30
2022-08-10T20:56:21.543Z,95.50
2022-08-10T20:59:08.939Z,97.10
2022-08-10T21:02:06.820Z,98.20
2022-08-10T21:04:58.543Z,99.30
2022-08-10T21:08:01.181Z,99.90
2022-08-10T21:11:05.943Z,99.90
2022-08-10T21:14:11.280Z,99.90
2022-08-10T21:17:00.568Z,99.90
2022-08-10T21:19:41.582Z,99.90
2022-08-10T21:22:29.404Z,99.90
2022-08-10T21:25:07.119Z,99.90
2022-08-10T21:28:13.497Z,99.90
2022-08-10T21:31:15.662Z,99.90
2022-08-10T21:34:32.018Z,99.90
2022-08-10T21:37:20.013Z,99.90
2022-08-10T21:40:35.222Z,99.90
2022-08-10T21:43:44.712Z,99.90
2022-08-10T21:47:16.697Z,99.90
2022-08-10T21:50:22.977Z,99.90
2022-08-10T21:53:43.994Z,99.90
2022-08-10T21:56:51.651Z,99.90
2022-08-10T21:59:56.297Z,99.90
2022-08-10T22:02:50.116Z,99.90
2022-08-10T22:05:44.680Z,99.90
2022-08-10T22:08:36.202Z,99.90
2022-08-10T22:11:29.365Z,99.90
2022-08-10T22:14:27.231Z,99.90
2022-08-10T22:18:03.815Z,99.90
2022-08-10T22:20:49.584Z,99.90
2022-08-10T22:23:36.364Z,99.90
2022-08-10T22:26:44.781Z,99.90
2022-08-10T22:29:57.499Z,99.90
2022-08-10T22:33:04.317Z,99.90
2022-08-10T22:36:00.922Z,99.90
2022-08-10T22:39:02.315Z,99.90
2022-08-10T22:42:11.861Z,99.90
2022-08-10T22:45:01.797Z,99.90
2022-08-10T22:47:51.399Z,99.90
2022-08-10T22:50:28.079Z,99.90
2022-08-10T22:53:08.807Z,99.90
2022-08-10T22:55:59.729Z,99.90
2022-08-10T22:58:38.949Z,99.90
2022-08-10T23:01:36.358Z,99.90
2022-08-10T23:04:29.053Z,99.90
2022-08-10T23:07:08.555Z,99.90
2022-08-10T23:09:37.866Z,99.90
2022-08-10T23:12:16.136Z,99.90
2022-08-10T23:14:59.399Z,99.90
2022-08-10T23:18:01.073Z,99.90
2022-08-10T23:20:30.761Z,99.90
2022-08-10T23:23:07.456Z,99.90
2022-08-10T23:25:57.372Z,99.90
2022-08-10T23:28:55.407Z,99.90
2022-08-10T23:31:15.899Z,99.90
2022-08-10T23:33:47.477Z,99.90
2022-08-10T23:36:33.904Z,99.90
2022-08-10T23:39:24.495Z,99.90
2022-08-10T23:42:06.440Z,99.90
2022-08-10T23:44:55.951Z,99.90
2022-08-10T23:47:28.761Z,99.90
2022-08-10T23:49:58.310Z,99.90
2022-08-10T23:52:33.436Z,99.90
2022-08-10T23:55:07.740Z,99.90
2022-08-10T23:57:39.156Z,99.90
